createdAt,value
2016-01-01T00:00:09.016Z,73776
2016-01-01T00:00:21.422Z,73776
2016-01-01T00:00:33.800Z,73773
2016-01-01T00:00:46.207Z,73776
2016-01-01T00:00:58.566Z,73780
2016-01-01T00:01:10.925Z,73778
2016-01-01T00:01:23.285Z,73778
2016-01-01T00:01:35.647Z,73777
2016-01-01T00:01:47.991Z,73780
2016-01-01T00:02:00.350Z,73779
2016-01-01T00:02:12.710Z,73778
2016-01-01T00:02:25.069Z,73778
2016-01-01T00:02:37.431Z,73774
2016-01-01T00:02:49.853Z,73780
2016-01-01T00:03:02.197Z,73781
2016-01-01T00:03:14.556Z,73783
2016-01-01T00:03:26.916Z,73783
2016-01-01T00:03:39.277Z,73781
2016-01-01T00:03:51.480Z,73779
2016-01-01T00:04:03.855Z,73774
2016-01-01T00:04:16.230Z,73772
2016-01-01T00:04:28.605Z,73770
2016-01-01T00:04:40.983Z,73771
2016-01-01T00:04:53.389Z,73774
2016-01-01T00:05:05.780Z,73777
2016-01-01T00:05:18.171Z,73777
2016-01-01T00:05:30.577Z,73774
2016-01-01T00:05:43.032Z,73775
2016-01-01T00:05:55.407Z,73778
2016-01-01T00:06:07.751Z,73778
2016-01-01T00:06:20.110Z,73775
2016-01-01T00:06:32.470Z,73774
2016-01-01T00:06:44.849Z,73768
2016-01-01T00:06:57.192Z,73770
2016-01-01T00:07:09.552Z,73774
2016-01-01T00:07:22.052Z,73774
2016-01-01T00:07:34.458Z,73773
2016-01-01T00:07:46.819Z,73774
2016-01-01T00:07:59.179Z,73773
2016-01-01T00:08:11.538Z,73771
2016-01-01T00:08:23.882Z,73772
2016-01-01T00:08:36.241Z,73775
2016-01-01T00:08:48.619Z,73774
2016-01-01T00:09:01.010Z,73776
2016-01-01T00:09:13.369Z,73773
2016-01-01T00:09:25.744Z,73769
2016-01-01T00:09:38.135Z,73769
2016-01-01T00:09:50.544Z,73770
2016-01-01T00:10:02.935Z,73772
2016-01-01T00:10:15.310Z,73770
2016-01-01T00:10:27.716Z,73771
2016-01-01T00:10:40.107Z,73772
2016-01-01T00:10:52.500Z,73773
2016-01-01T00:11:04.891Z,73772
2016-01-01T00:11:17.250Z,73777
2016-01-01T00:11:29.610Z,73772
2016-01-01T00:11:41.969Z,73772
2016-01-01T00:11:54.331Z,73772
2016-01-01T00:12:06.691Z,73775
2016-01-01T00:12:19.050Z,73770
2016-01-01T00:12:31.425Z,73771
2016-01-01T00:12:43.784Z,73772
2016-01-01T00:12:56.146Z,73771
2016-01-01T00:13:08.521Z,73767
2016-01-01T00:13:20.896Z,73771
2016-01-01T00:13:33.271Z,73771
2016-01-01T00:13:45.630Z,73773
2016-01-01T00:13:58.008Z,73768
2016-01-01T00:14:10.399Z,73769
2016-01-01T00:14:22.789Z,73769
2016-01-01T00:14:35.180Z,73768
2016-01-01T00:14:47.571Z,73769
2016-01-01T00:14:59.964Z,73767
2016-01-01T00:15:12.355Z,73767
2016-01-01T00:15:24.746Z,73767
2016-01-01T00:15:37.151Z,73769
2016-01-01T00:15:49.510Z,73770
2016-01-01T00:16:01.873Z,73769
2016-01-01T00:16:14.216Z,73767
2016-01-01T00:16:26.576Z,73772
2016-01-01T00:16:38.951Z,73769
2016-01-01T00:16:51.310Z,73771
2016-01-01T00:17:03.672Z,73768
2016-01-01T00:17:16.032Z,73769
2016-01-01T00:17:28.391Z,73772
2016-01-01T00:17:40.766Z,73771
2016-01-01T00:17:53.110Z,73767
2016-01-01T00:18:05.471Z,73764
2016-01-01T00:18:17.831Z,73764
2016-01-01T00:18:30.206Z,73767
2016-01-01T00:18:42.581Z,73768
2016-01-01T00:18:54.956Z,73767
2016-01-01T00:19:07.334Z,73768
2016-01-01T00:19:19.709Z,73768
2016-01-01T00:19:31.943Z,73768
2016-01-01T00:19:44.334Z,73767
2016-01-01T00:19:56.724Z,73770
2016-01-01T00:20:09.102Z,73767
2016-01-01T00:20:21.509Z,73766
2016-01-01T00:20:33.899Z,73767
2016-01-01T00:20:46.290Z,73762
2016-01-01T00:20:58.649Z,73760
2016-01-01T00:21:11.012Z,73759
2016-01-01T00:21:23.371Z,73760
2016-01-01T00:21:35.730Z,73760
2016-01-01T00:21:48.074Z,73762
2016-01-01T00:22:00.449Z,73763
2016-01-01T00:22:12.795Z,73768
2016-01-01T00:22:25.185Z,73764
2016-01-01T00:22:37.529Z,73764
2016-01-01T00:22:49.873Z,73765
2016-01-01T00:23:02.248Z,73766
2016-01-01T00:23:14.595Z,73767
2016-01-01T00:23:26.954Z,73766
2016-01-01T00:23:39.313Z,73765
2016-01-01T00:23:51.673Z,73763
2016-01-01T00:24:03.892Z,73765
2016-01-01T00:24:16.270Z,73766
2016-01-01T00:24:28.676Z,73767
2016-01-01T00:24:41.035Z,73764
2016-01-01T00:24:53.426Z,73764
2016-01-01T00:25:05.801Z,73767
2016-01-01T00:25:18.178Z,73767
2016-01-01T00:25:30.584Z,73764
2016-01-01T00:25:42.959Z,73762
2016-01-01T00:25:55.365Z,73759
2016-01-01T00:26:07.740Z,73761
2016-01-01T00:26:20.104Z,73761
2016-01-01T00:26:32.463Z,73762
2016-01-01T00:26:44.822Z,73762
2016-01-01T00:26:57.182Z,73763
2016-01-01T00:27:09.526Z,73764
2016-01-01T00:27:21.887Z,73765
2016-01-01T00:27:34.246Z,73766
2016-01-01T00:27:45.887Z,73764
2016-01-01T00:27:58.246Z,73763
2016-01-01T00:28:10.621Z,73765
2016-01-01T00:28:22.984Z,73766
2016-01-01T00:28:35.343Z,73765
2016-01-01T00:28:47.546Z,73764
2016-01-01T00:28:59.906Z,73764
2016-01-01T00:29:12.265Z,73765
2016-01-01T00:29:24.642Z,73764
2016-01-01T00:29:37.017Z,73764
2016-01-01T00:29:49.392Z,73762
2016-01-01T00:30:01.783Z,73765
2016-01-01T00:30:14.173Z,73767
2016-01-01T00:30:26.551Z,73765
2016-01-01T00:30:38.942Z,73766
2016-01-01T00:30:51.348Z,73767
2016-01-01T00:31:03.707Z,73769
2016-01-01T00:31:16.067Z,73764
2016-01-01T00:31:28.429Z,73765
2016-01-01T00:31:40.789Z,73764
2016-01-01T00:31:53.148Z,73766
2016-01-01T00:32:05.585Z,73766
2016-01-01T00:32:17.945Z,73766
2016-01-01T00:32:30.307Z,73767
2016-01-01T00:32:42.713Z,73762
2016-01-01T00:32:55.073Z,73763
2016-01-01T00:33:07.432Z,73764
2016-01-01T00:33:19.792Z,73761
2016-01-01T00:33:32.154Z,73757
2016-01-01T00:33:44.529Z,73759
2016-01-01T00:33:56.888Z,73755
2016-01-01T00:34:09.263Z,73758
2016-01-01T00:34:21.638Z,73758
2016-01-01T00:34:34.016Z,73764
2016-01-01T00:34:46.376Z,73762
2016-01-01T00:34:58.751Z,73760
2016-01-01T00:35:11.157Z,73759
2016-01-01T00:35:23.532Z,73764
2016-01-01T00:35:35.925Z,73766
2016-01-01T00:35:48.315Z,73764
2016-01-01T00:36:00.721Z,73769
2016-01-01T00:36:13.096Z,73767
2016-01-01T00:36:25.518Z,73765
2016-01-01T00:36:37.881Z,73765
2016-01-01T00:36:50.224Z,73764
2016-01-01T00:37:02.584Z,73764
2016-01-01T00:37:14.943Z,73764
2016-01-01T00:37:27.303Z,73759
2016-01-01T00:37:39.664Z,73763
2016-01-01T00:37:52.039Z,73761
2016-01-01T00:38:04.398Z,73763
2016-01-01T00:38:16.758Z,73762
2016-01-01T00:38:29.133Z,73762
2016-01-01T00:38:41.512Z,73768
2016-01-01T00:38:53.871Z,73763
2016-01-01T00:39:06.230Z,73762
2016-01-01T00:39:18.590Z,73764
2016-01-01T00:39:30.965Z,73764
2016-01-01T00:39:43.342Z,73763
2016-01-01T00:39:55.717Z,73762
2016-01-01T00:40:08.092Z,73764
2016-01-01T00:40:20.451Z,73762
2016-01-01T00:40:32.857Z,73764
2016-01-01T00:40:45.251Z,73762
2016-01-01T00:40:57.657Z,73764
2016-01-01T00:41:10.048Z,73760
2016-01-01T00:41:22.439Z,73760
2016-01-01T00:41:34.829Z,73761
2016-01-01T00:41:47.237Z,73763
2016-01-01T00:41:59.597Z,73762
2016-01-01T00:42:11.237Z,73764
2016-01-01T00:42:23.597Z,73764
2016-01-01T00:42:35.956Z,73767
2016-01-01T00:42:48.319Z,73764
2016-01-01T00:43:00.678Z,73763
2016-01-01T00:43:13.037Z,73765
2016-01-01T00:43:25.397Z,73762
2016-01-01T00:43:37.772Z,73763
2016-01-01T00:43:50.151Z,73763
2016-01-01T00:44:02.494Z,73765
2016-01-01T00:44:14.869Z,73762
2016-01-01T00:44:27.229Z,73762
2016-01-01T00:44:39.588Z,73762
2016-01-01T00:44:51.950Z,73763
2016-01-01T00:45:04.325Z,73761
2016-01-01T00:45:16.700Z,73764
2016-01-01T00:45:29.075Z,73763
2016-01-01T00:45:40.746Z,73762
2016-01-01T00:45:53.140Z,73762
2016-01-01T00:46:05.531Z,73764
2016-01-01T00:46:17.921Z,73762
2016-01-01T00:46:30.328Z,73763
2016-01-01T00:46:42.718Z,73762
2016-01-01T00:46:55.096Z,73761
2016-01-01T00:47:07.502Z,73763
2016-01-01T00:47:19.862Z,73761
2016-01-01T00:47:32.206Z,73764
2016-01-01T00:47:44.565Z,73762
2016-01-01T00:47:56.926Z,73760
2016-01-01T00:48:09.286Z,73764
2016-01-01T00:48:21.661Z,73763
2016-01-01T00:48:34.020Z,73762
2016-01-01T00:48:45.661Z,73760
2016-01-01T00:48:58.024Z,73760
2016-01-01T00:49:10.399Z,73760
2016-01-01T00:49:22.758Z,73765
2016-01-01T00:49:35.118Z,73765
2016-01-01T00:49:47.477Z,73761
2016-01-01T00:49:59.823Z,73766
2016-01-01T00:50:12.198Z,73764
2016-01-01T00:50:24.573Z,73762
2016-01-01T00:50:36.932Z,73765
2016-01-01T00:50:49.307Z,73766
2016-01-01T00:51:01.685Z,73764
2016-01-01T00:51:14.076Z,73764
2016-01-01T00:51:26.482Z,73765
2016-01-01T00:51:38.857Z,73765
2016-01-01T00:51:51.263Z,73764
2016-01-01T00:52:03.625Z,73768
2016-01-01T00:52:15.969Z,73763
2016-01-01T00:52:28.344Z,73763
2016-01-01T00:52:40.703Z,73762
2016-01-01T00:52:53.062Z,73763
2016-01-01T00:53:05.426Z,73765
2016-01-01T00:53:17.785Z,73759
2016-01-01T00:53:30.144Z,73762
2016-01-01T00:53:42.504Z,73758
2016-01-01T00:53:54.848Z,73755
2016-01-01T00:54:07.209Z,73758
2016-01-01T00:54:19.553Z,73757
2016-01-01T00:54:31.896Z,73758
2016-01-01T00:54:44.256Z,73758
2016-01-01T00:54:56.631Z,73753
2016-01-01T00:55:08.993Z,73754
2016-01-01T00:55:21.368Z,73754
2016-01-01T00:55:33.743Z,73753
2016-01-01T00:55:46.118Z,73753
2016-01-01T00:55:58.509Z,73753
2016-01-01T00:56:10.902Z,73755
2016-01-01T00:56:23.309Z,73756
2016-01-01T00:56:35.699Z,73757
2016-01-01T00:56:48.090Z,73753
2016-01-01T00:57:00.481Z,73756
2016-01-01T00:57:12.843Z,73754
2016-01-01T00:57:25.218Z,73754
2016-01-01T00:57:37.562Z,73755
2016-01-01T00:57:49.921Z,73755
2016-01-01T00:58:02.280Z,73755
2016-01-01T00:58:14.642Z,73755
2016-01-01T00:58:27.001Z,73754
2016-01-01T00:58:39.361Z,73755
2016-01-01T00:58:51.017Z,73757
2016-01-01T00:59:03.376Z,73754
2016-01-01T00:59:15.754Z,73753
2016-01-01T00:59:28.114Z,73748
2016-01-01T00:59:40.489Z,73750
2016-01-01T00:59:52.864Z,73751
2016-01-01T01:00:05.254Z,73753
2016-01-01T01:00:17.647Z,73750
2016-01-01T01:00:30.037Z,73747
2016-01-01T01:00:42.428Z,73749
2016-01-01T01:00:54.803Z,73748
2016-01-01T01:01:07.209Z,73748
2016-01-01T01:01:19.634Z,73750
2016-01-01T01:01:31.556Z,73751
2016-01-01T01:01:43.744Z,73751
2016-01-01T01:01:55.994Z,73750
2016-01-01T01:02:08.212Z,73748
2016-01-01T01:02:20.575Z,73749
2016-01-01T01:02:32.934Z,73748
2016-01-01T01:02:45.293Z,73747
2016-01-01T01:02:57.653Z,73745
2016-01-01T01:03:10.012Z,73748
2016-01-01T01:03:22.375Z,73743
2016-01-01T01:03:34.734Z,73746
2016-01-01T01:03:46.390Z,73747
2016-01-01T01:03:58.750Z,73744
2016-01-01T01:04:11.109Z,73746
2016-01-01T01:04:23.471Z,73744
2016-01-01T01:04:35.846Z,73740
2016-01-01T01:04:48.206Z,73742
2016-01-01T01:05:00.596Z,73742
2016-01-01T01:05:12.971Z,73741
2016-01-01T01:05:25.348Z,73742
2016-01-01T01:05:37.739Z,73745
2016-01-01T01:05:50.114Z,73744
2016-01-01T01:06:02.520Z,73743
2016-01-01T01:06:14.911Z,73744
2016-01-01T01:06:27.304Z,73746
2016-01-01T01:06:39.695Z,73747
2016-01-01T01:06:52.086Z,73747
2016-01-01T01:07:04.492Z,73746
2016-01-01T01:07:16.836Z,73747
2016-01-01T01:07:29.198Z,73746
2016-01-01T01:07:41.557Z,73745
2016-01-01T01:07:53.917Z,73746
2016-01-01T01:08:06.276Z,73749
2016-01-01T01:08:18.636Z,73742
2016-01-01T01:08:30.997Z,73747
2016-01-01T01:08:43.356Z,73743
2016-01-01T01:08:55.716Z,73748
2016-01-01T01:09:08.091Z,73745
2016-01-01T01:09:20.466Z,73743
2016-01-01T01:09:32.828Z,73746
2016-01-01T01:09:45.172Z,73739
2016-01-01T01:09:57.531Z,73742
2016-01-01T01:10:09.906Z,73747
2016-01-01T01:10:22.281Z,73747
2016-01-01T01:10:34.644Z,73748
2016-01-01T01:10:47.019Z,73750
2016-01-01T01:10:59.425Z,73749
2016-01-01T01:11:11.815Z,73749
2016-01-01T01:11:24.206Z,73747
2016-01-01T01:11:36.584Z,73752
2016-01-01T01:11:48.990Z,73747
2016-01-01T01:12:01.381Z,73744
2016-01-01T01:12:13.787Z,73746
2016-01-01T01:12:26.147Z,73744
2016-01-01T01:12:38.509Z,73745
2016-01-01T01:12:50.868Z,73746
2016-01-01T01:13:03.228Z,73746
2016-01-01T01:13:15.587Z,73747
2016-01-01T01:13:27.790Z,73746
2016-01-01T01:13:40.168Z,73744
2016-01-01T01:13:52.528Z,73744
2016-01-01T01:14:04.887Z,73743
2016-01-01T01:14:17.262Z,73745
2016-01-01T01:14:29.621Z,73742
2016-01-01T01:14:41.984Z,73741
2016-01-01T01:14:54.343Z,73743
2016-01-01T01:15:06.702Z,73743
2016-01-01T01:15:19.062Z,73741
2016-01-01T01:15:31.437Z,73740
2016-01-01T01:15:43.798Z,73740
2016-01-01T01:15:56.173Z,73741
2016-01-01T01:16:08.548Z,73743
2016-01-01T01:16:20.939Z,73742
2016-01-01T01:16:33.345Z,73743
2016-01-01T01:16:45.754Z,73745
2016-01-01T01:16:58.145Z,73741
2016-01-01T01:17:10.536Z,73744
2016-01-01T01:17:22.926Z,73743
2016-01-01T01:17:35.286Z,73744
2016-01-01T01:17:47.647Z,73743
2016-01-01T01:18:00.006Z,73744
2016-01-01T01:18:12.366Z,73746
2016-01-01T01:18:24.709Z,73745
2016-01-01T01:18:37.084Z,73745
2016-01-01T01:18:49.448Z,73746
2016-01-01T01:19:01.807Z,73747
2016-01-01T01:19:14.167Z,73743
2016-01-01T01:19:26.542Z,73743
2016-01-01T01:19:38.901Z,73746
2016-01-01T01:19:51.262Z,73747
2016-01-01T01:20:03.622Z,73749
2016-01-01T01:20:15.981Z,73744
2016-01-01T01:20:28.340Z,73746
2016-01-01T01:20:40.715Z,73745
2016-01-01T01:20:53.093Z,73746
2016-01-01T01:21:05.468Z,73749
2016-01-01T01:21:17.843Z,73745
2016-01-01T01:21:30.250Z,73746
2016-01-01T01:22:17.629Z,73742
2016-01-01T01:22:30.035Z,73742
2016-01-01T01:22:45.551Z,73744
2016-01-01T01:22:57.910Z,73748
2016-01-01T01:23:10.269Z,73746
2016-01-01T01:23:22.632Z,73746
2016-01-01T01:23:34.991Z,73742
2016-01-01T01:23:47.366Z,73743
2016-01-01T01:23:59.725Z,73743
2016-01-01T01:24:12.085Z,73741
2016-01-01T01:24:24.431Z,73744
2016-01-01T01:24:36.790Z,73745
2016-01-01T01:24:49.165Z,73743
2016-01-01T01:25:01.524Z,73744
2016-01-01T01:25:13.884Z,73748
2016-01-01T01:25:26.246Z,73742
2016-01-01T01:25:38.637Z,73746
2016-01-01T01:25:51.012Z,73737
2016-01-01T01:26:03.402Z,73742
2016-01-01T01:26:15.793Z,73742
2016-01-01T01:26:28.171Z,73745
2016-01-01T01:26:40.593Z,73742
2016-01-01T01:26:52.983Z,73738
2016-01-01T01:27:05.452Z,73741
2016-01-01T01:27:17.843Z,73739
2016-01-01T01:27:30.205Z,73739
2016-01-01T01:27:42.565Z,73743
2016-01-01T01:27:54.924Z,73744
2016-01-01T01:28:07.283Z,73744
2016-01-01T01:28:19.643Z,73741
2016-01-01T01:28:32.035Z,73745
2016-01-01T01:28:44.395Z,73743
2016-01-01T01:28:56.754Z,73739
2016-01-01T01:29:09.129Z,73744
2016-01-01T01:29:21.488Z,73740
2016-01-01T01:29:33.851Z,73744
2016-01-01T01:29:46.195Z,73740
2016-01-01T01:29:58.554Z,73741
2016-01-01T01:30:10.929Z,73740
2016-01-01T01:30:23.304Z,73739
2016-01-01T01:30:35.682Z,73744
2016-01-01T01:30:48.041Z,73741
2016-01-01T01:31:00.432Z,73745
2016-01-01T01:31:12.807Z,73738
2016-01-01T01:31:25.198Z,73744
2016-01-01T01:31:37.576Z,73740
2016-01-01T01:31:49.966Z,73745
2016-01-01T01:32:02.357Z,73744
2016-01-01T01:32:14.763Z,73743
2016-01-01T01:32:26.435Z,73746
2016-01-01T01:32:38.797Z,73743
2016-01-01T01:32:51.157Z,73746
2016-01-01T01:33:03.516Z,73745
2016-01-01T01:33:15.875Z,73748
2016-01-01T01:33:28.235Z,73746
2016-01-01T01:33:40.596Z,73747
2016-01-01T01:33:52.956Z,73746
2016-01-01T01:34:05.315Z,73752
2016-01-01T01:34:17.690Z,73752
2016-01-01T01:34:30.065Z,73753
2016-01-01T01:34:42.427Z,73749
2016-01-01T01:34:54.787Z,73749
2016-01-01T01:35:07.162Z,73749
2016-01-01T01:35:19.505Z,73742
2016-01-01T01:35:31.177Z,73741
2016-01-01T01:35:43.555Z,73742
2016-01-01T01:35:55.930Z,73737
2016-01-01T01:36:08.305Z,73739
2016-01-01T01:36:19.993Z,73742
2016-01-01T01:36:32.383Z,73742
2016-01-01T01:36:44.777Z,73744
2016-01-01T01:36:57.183Z,73739
2016-01-01T01:37:09.558Z,73743
2016-01-01T01:37:21.949Z,73743
2016-01-01T01:37:34.340Z,73744
2016-01-01T01:37:46.733Z,73747
2016-01-01T01:37:59.093Z,73751
2016-01-01T01:38:11.452Z,73748
2016-01-01T01:38:23.796Z,73750
2016-01-01T01:38:36.155Z,73748
2016-01-01T01:38:48.516Z,73747
2016-01-01T01:39:00.891Z,73745
2016-01-01T01:39:13.266Z,73744
2016-01-01T01:39:25.626Z,73743
2016-01-01T01:39:37.985Z,73743
2016-01-01T01:39:50.363Z,73741
2016-01-01T01:40:02.723Z,73746
2016-01-01T01:40:15.082Z,73742
2016-01-01T01:40:27.441Z,73744
2016-01-01T01:40:39.801Z,73742
2016-01-01T01:40:52.210Z,73744
2016-01-01T01:41:04.585Z,73739
2016-01-01T01:41:16.960Z,73742
2016-01-01T01:41:29.335Z,73746
2016-01-01T01:41:41.710Z,73747
2016-01-01T01:41:54.104Z,73744
2016-01-01T01:42:05.791Z,73746
2016-01-01T01:42:17.463Z,73746
2016-01-01T01:42:29.869Z,73740
2016-01-01T01:42:42.260Z,73739
2016-01-01T01:42:54.652Z,73744
2016-01-01T01:43:07.043Z,73746
2016-01-01T01:43:19.449Z,73748
2016-01-01T01:43:31.809Z,73750
2016-01-01T01:43:44.168Z,73746
2016-01-01T01:43:55.827Z,73745
2016-01-01T01:44:08.187Z,73744
2016-01-01T01:44:20.530Z,73737
2016-01-01T01:44:32.905Z,73724
2016-01-01T01:44:45.265Z,73732
2016-01-01T01:44:57.627Z,73733
2016-01-01T01:45:09.987Z,73735
2016-01-01T01:45:22.346Z,73738
2016-01-01T01:45:34.721Z,73739
2016-01-01T01:45:47.080Z,73738
2016-01-01T01:45:59.443Z,73738
2016-01-01T01:46:11.802Z,73739
2016-01-01T01:46:24.161Z,73737
2016-01-01T01:46:36.536Z,73737
2016-01-01T01:46:48.911Z,73743
2016-01-01T01:47:01.288Z,73746
2016-01-01T01:47:13.648Z,73745
2016-01-01T01:47:26.054Z,73750
2016-01-01T01:47:38.445Z,73745
2016-01-01T01:47:50.835Z,73747
2016-01-01T01:48:03.213Z,73748
2016-01-01T01:48:15.604Z,73747
2016-01-01T01:48:27.979Z,73745
2016-01-01T01:48:40.338Z,73746
2016-01-01T01:48:52.698Z,73748
2016-01-01T01:49:04.184Z,73748
2016-01-01T01:49:16.543Z,73750
2016-01-01T01:49:28.903Z,73753
2016-01-01T01:49:41.262Z,73752
2016-01-01T01:49:53.622Z,73756
2016-01-01T01:50:05.984Z,73754
2016-01-01T01:50:18.343Z,73754
2016-01-01T01:50:30.718Z,73746
2016-01-01T01:50:43.078Z,73746
2016-01-01T01:50:55.437Z,73740
2016-01-01T01:51:07.799Z,73747
2016-01-01T01:51:20.159Z,73737
2016-01-01T01:51:32.534Z,73740
2016-01-01T01:51:44.909Z,73747
2016-01-01T01:51:57.284Z,73745
2016-01-01T01:52:09.662Z,73749
2016-01-01T01:52:22.052Z,73741
2016-01-01T01:52:34.459Z,73744
2016-01-01T01:52:46.849Z,73740
2016-01-01T01:52:59.240Z,73740
2016-01-01T01:53:11.633Z,73742
2016-01-01T01:53:23.992Z,73741
2016-01-01T01:53:36.351Z,73743
2016-01-01T01:53:48.758Z,73742
2016-01-01T01:54:01.117Z,73742
2016-01-01T01:54:13.480Z,73746
2016-01-01T01:54:25.840Z,73744
2016-01-01T01:54:38.199Z,73749
2016-01-01T01:54:50.558Z,73742
2016-01-01T01:55:02.918Z,73749
2016-01-01T01:55:15.279Z,73744
2016-01-01T01:55:27.623Z,73749
2016-01-01T01:55:39.998Z,73750
2016-01-01T01:55:52.357Z,73751
2016-01-01T01:56:04.717Z,73754
2016-01-01T01:56:17.079Z,73752
2016-01-01T01:56:28.751Z,73755
2016-01-01T01:56:41.126Z,73753
2016-01-01T01:56:53.501Z,73757
2016-01-01T01:57:05.860Z,73759
2016-01-01T01:57:18.253Z,73759
2016-01-01T01:57:30.644Z,73757
2016-01-01T01:57:43.019Z,73747
2016-01-01T01:57:55.394Z,73749
2016-01-01T01:58:07.784Z,73746
2016-01-01T01:58:20.148Z,73746
2016-01-01T01:58:32.538Z,73746
2016-01-01T01:58:44.882Z,73751
2016-01-01T01:58:56.523Z,73755
2016-01-01T01:59:08.882Z,73751
2016-01-01T01:59:21.243Z,73747
2016-01-01T01:59:33.603Z,73745
2016-01-01T01:59:45.962Z,73743
2016-01-01T01:59:58.321Z,73752
2016-01-01T02:00:10.681Z,73745
2016-01-01T02:00:23.059Z,73749
2016-01-01T02:00:35.418Z,73750
2016-01-01T02:00:47.778Z,73753
2016-01-01T02:01:00.137Z,73740
2016-01-01T02:01:12.512Z,73734
2016-01-01T02:01:24.874Z,73737
2016-01-01T02:01:37.276Z,73742
2016-01-01T02:01:49.635Z,73742
2016-01-01T02:02:02.010Z,73737
2016-01-01T02:02:13.666Z,73741
2016-01-01T02:02:26.043Z,73742
2016-01-01T02:02:38.465Z,73742
2016-01-01T02:02:50.856Z,73747
2016-01-01T02:03:03.246Z,73752
2016-01-01T02:03:15.621Z,73756
2016-01-01T02:03:27.312Z,73756
2016-01-01T02:03:39.703Z,73755
2016-01-01T02:03:52.093Z,73758
2016-01-01T02:04:04.499Z,73759
2016-01-01T02:04:16.859Z,73756
2016-01-01T02:04:29.221Z,73754
2016-01-01T02:04:41.581Z,73757
2016-01-01T02:04:53.940Z,73755
2016-01-01T02:05:06.299Z,73757
2016-01-01T02:05:18.674Z,73751
2016-01-01T02:05:31.037Z,73754
2016-01-01T02:05:43.396Z,73755
2016-01-01T02:05:55.755Z,73758
2016-01-01T02:06:08.115Z,73747
2016-01-01T02:06:20.334Z,73739
2016-01-01T02:06:32.695Z,73739
2016-01-01T02:06:45.054Z,73735
2016-01-01T02:06:57.414Z,73735
2016-01-01T02:07:09.789Z,73732
2016-01-01T02:07:22.148Z,73742
2016-01-01T02:07:34.526Z,73747
2016-01-01T02:07:46.901Z,73752
2016-01-01T02:07:59.276Z,73757
2016-01-01T02:08:11.667Z,73755
2016-01-01T02:08:24.042Z,73747
2016-01-01T02:08:36.436Z,73745
2016-01-01T02:08:48.843Z,73744
2016-01-01T02:09:01.233Z,73748
2016-01-01T02:09:13.624Z,73752
2016-01-01T02:09:26.014Z,73754
2016-01-01T02:09:38.391Z,73744
2016-01-01T02:09:50.751Z,73740
2016-01-01T02:10:03.141Z,73747
2016-01-01T02:10:15.501Z,73746
2016-01-01T02:10:27.860Z,73749
2016-01-01T02:10:40.223Z,73748
2016-01-01T02:10:52.598Z,73746
2016-01-01T02:11:04.957Z,73751
2016-01-01T02:11:17.316Z,73747
2016-01-01T02:11:29.676Z,73752
2016-01-01T02:11:42.054Z,73759
2016-01-01T02:11:54.413Z,73757
2016-01-01T02:12:06.772Z,73756
2016-01-01T02:12:19.116Z,73758
2016-01-01T02:12:31.491Z,73755
2016-01-01T02:12:43.900Z,73756
2016-01-01T02:12:56.275Z,73753
2016-01-01T02:13:08.650Z,73753
2016-01-01T02:13:20.307Z,73753
2016-01-01T02:13:32.713Z,73749
2016-01-01T02:13:45.106Z,73753
2016-01-01T02:13:57.496Z,73748
2016-01-01T02:14:09.887Z,73751
2016-01-01T02:14:22.277Z,73752
2016-01-01T02:14:34.668Z,73755
2016-01-01T02:14:47.062Z,73749
2016-01-01T02:14:59.484Z,73741
2016-01-01T02:15:11.827Z,73743
2016-01-01T02:15:24.187Z,73758
2016-01-01T02:15:36.546Z,73761
2016-01-01T02:15:48.908Z,73765
2016-01-01T02:16:01.268Z,73762
2016-01-01T02:16:13.612Z,73758
2016-01-01T02:16:25.268Z,73737
2016-01-01T02:16:37.627Z,73747
2016-01-01T02:16:49.990Z,73751
2016-01-01T02:17:02.349Z,73756
2016-01-01T02:17:14.724Z,73754
2016-01-01T02:17:27.068Z,73756
2016-01-01T02:17:39.427Z,73758
2016-01-01T02:17:51.788Z,73761
2016-01-01T02:18:04.163Z,73762
2016-01-01T02:18:16.523Z,73770
2016-01-01T02:18:28.898Z,73765
2016-01-01T02:18:41.273Z,73761
2016-01-01T02:18:53.650Z,73757
2016-01-01T02:19:06.056Z,73740
2016-01-01T02:19:18.431Z,73721
2016-01-01T02:19:30.822Z,73720
2016-01-01T02:19:43.259Z,73721
2016-01-01T02:19:55.654Z,73724
2016-01-01T02:20:08.044Z,73719
2016-01-01T02:20:20.435Z,73719
2016-01-01T02:20:32.826Z,73721
2016-01-01T02:20:45.232Z,73733
2016-01-01T02:20:57.593Z,73744
2016-01-01T02:21:09.953Z,73745
2016-01-01T02:21:22.312Z,73748
2016-01-01T02:21:34.671Z,73752
2016-01-01T02:21:47.031Z,73752
2016-01-01T02:21:59.424Z,73742
2016-01-01T02:22:11.768Z,73741
2016-01-01T02:22:24.128Z,73735
2016-01-01T02:22:36.503Z,73745
2016-01-01T02:22:48.893Z,73746
2016-01-01T02:23:01.256Z,73744
2016-01-01T02:23:13.631Z,73743
2016-01-01T02:23:26.006Z,73738
2016-01-01T02:23:38.256Z,73732
2016-01-01T02:23:50.646Z,73737
2016-01-01T02:24:03.040Z,73748
2016-01-01T02:24:15.430Z,73747
2016-01-01T02:24:27.805Z,73748
2016-01-01T02:24:40.196Z,73746
2016-01-01T02:24:52.587Z,73740
2016-01-01T02:25:04.996Z,73738
2016-01-01T02:25:17.340Z,73741
2016-01-01T02:25:29.699Z,73748
2016-01-01T02:25:42.058Z,73751
2016-01-01T02:25:54.418Z,73750
2016-01-01T02:26:06.795Z,73747
2016-01-01T02:26:19.154Z,73749
2016-01-01T02:26:31.498Z,73743
2016-01-01T02:26:43.873Z,73749
2016-01-01T02:26:56.232Z,73745
2016-01-01T02:27:08.438Z,73744
2016-01-01T02:27:20.798Z,73736
2016-01-01T02:27:33.142Z,73736
2016-01-01T02:27:45.517Z,73734
2016-01-01T02:27:57.876Z,73734
2016-01-01T02:28:10.254Z,73739
2016-01-01T02:28:22.629Z,73735
2016-01-01T02:28:35.004Z,73737
2016-01-01T02:28:47.363Z,73732
2016-01-01T02:28:59.723Z,73737
2016-01-01T02:29:11.382Z,73743
2016-01-01T02:29:23.773Z,73736
2016-01-01T02:29:36.210Z,73729
2016-01-01T02:29:48.585Z,73736
2016-01-01T02:30:01.007Z,73729
2016-01-01T02:30:13.368Z,73733
2016-01-01T02:30:25.712Z,73738
2016-01-01T02:30:38.071Z,73741
2016-01-01T02:30:50.431Z,73744
2016-01-01T02:31:02.790Z,73747
2016-01-01T02:31:15.153Z,73739
2016-01-01T02:31:27.512Z,73737
2016-01-01T02:31:39.871Z,73743
2016-01-01T02:31:52.231Z,73739
2016-01-01T02:32:04.606Z,73738
2016-01-01T02:32:16.967Z,73738
2016-01-01T02:32:29.311Z,73737
2016-01-01T02:32:41.670Z,73738
2016-01-01T02:32:54.030Z,73740
2016-01-01T02:33:06.408Z,73743
2016-01-01T02:33:18.783Z,73740
2016-01-01T02:33:31.158Z,73736
2016-01-01T02:33:43.533Z,73743
2016-01-01T02:33:55.908Z,73744
2016-01-01T02:34:08.301Z,73739
2016-01-01T02:34:20.692Z,73726
2016-01-01T02:34:33.082Z,73734
2016-01-01T02:34:45.473Z,73745
2016-01-01T02:34:57.879Z,73748
2016-01-01T02:35:10.273Z,73746
2016-01-01T02:35:22.664Z,73740
2016-01-01T02:35:35.023Z,73741
2016-01-01T02:35:47.398Z,73735
2016-01-01T02:35:59.742Z,73737
2016-01-01T02:36:12.103Z,73745
2016-01-01T02:36:24.478Z,73747
2016-01-01T02:36:36.837Z,73754
2016-01-01T02:36:49.212Z,73749
2016-01-01T02:37:01.556Z,73750
2016-01-01T02:37:13.919Z,73752
2016-01-01T02:37:26.278Z,73749
2016-01-01T02:37:38.653Z,73750
2016-01-01T02:37:50.997Z,73754
2016-01-01T02:38:03.356Z,73756
2016-01-01T02:38:15.718Z,73756
2016-01-01T02:38:28.078Z,73757
2016-01-01T02:38:40.453Z,73751
2016-01-01T02:38:52.828Z,73755
2016-01-01T02:39:05.203Z,73754
2016-01-01T02:39:17.612Z,73754
2016-01-01T02:39:30.003Z,73754
2016-01-01T02:39:42.425Z,73752